sensor_id;sensor_type;location;lat;lon;timestamp;temperature;humidity
16505;HTU21D;8365;51.030;4.696;2023-07-09T00:00:16;24.23;118.99
16505;HTU21D;8365;51.030;4.696;2023-07-09T00:02:49;24.21;118.75
16505;HTU21D;8365;51.030;4.696;2023-07-09T00:05:20;24.26;118.32
16505;HTU21D;8365;51.030;4.696;2023-07-09T00:07:50;24.24;118.45
16505;HTU21D;8365;51.030;4.696;2023-07-09T00:10:21;24.26;118.59
16505;HTU21D;8365;51.030;4.696;2023-07-09T00:12:51;24.24;118.99
16505;HTU21D;8365;51.030;4.696;2023-07-09T00:15:22;24.21;118.86
16505;HTU21D;8365;51.030;4.696;2023-07-09T00:17:52;24.23;118.99
16505;HTU21D;8365;51.030;4.696;2023-07-09T00:20:23;24.20;118.89
16505;HTU21D;8365;51.030;4.696;2023-07-09T00:22:53;24.16;118.99
16505;HTU21D;8365;51.030;4.696;2023-07-09T00:25:24;24.17;118.57
16505;HTU21D;8365;51.030;4.696;2023-07-09T00:27:55;24.13;118.99
16505;HTU21D;8365;51.030;4.696;2023-07-09T00:30:25;24.14;118.80
16505;HTU21D;8365;51.030;4.696;2023-07-09T00:32:56;24.09;118.99
16505;HTU21D;8365;51.030;4.696;2023-07-09T00:35:26;24.09;118.76
16505;HTU21D;8365;51.030;4.696;2023-07-09T00:37:56;24.01;118.99
16505;HTU21D;8365;51.030;4.696;2023-07-09T00:40:30;23.89;118.99
16505;HTU21D;8365;51.030;4.696;2023-07-09T00:43:01;23.77;118.99
16505;HTU21D;8365;51.030;4.696;2023-07-09T00:45:32;23.77;118.99
16505;HTU21D;8365;51.030;4.696;2023-07-09T00:48:04;23.73;118.99
16505;HTU21D;8365;51.030;4.696;2023-07-09T00:50:44;23.54;118.99
16505;HTU21D;8365;51.030;4.696;2023-07-09T00:53:25;23.41;118.99
16505;HTU21D;8365;51.030;4.696;2023-07-09T00:56:01;23.22;118.99
16505;HTU21D;8365;51.030;4.696;2023-07-09T00:58:34;23.40;118.99
16505;HTU21D;8365;51.030;4.696;2023-07-09T01:01:09;23.42;118.99
16505;HTU21D;8365;51.030;4.696;2023-07-09T01:03:45;23.35;118.99
16505;HTU21D;8365;51.030;4.696;2023-07-09T01:06:27;23.35;118.99
16505;HTU21D;8365;51.030;4.696;2023-07-09T01:09:02;23.41;118.99
16505;HTU21D;8365;51.030;4.696;2023-07-09T01:11:33;23.54;118.99
16505;HTU21D;8365;51.030;4.696;2023-07-09T01:14:06;23.56;118.99
16505;HTU21D;8365;51.030;4.696;2023-07-09T01:16:44;23.59;118.99
16505;HTU21D;8365;51.030;4.696;2023-07-09T01:19:21;23.65;118.99
16505;HTU21D;8365;51.030;4.696;2023-07-09T01:21:55;23.67;118.99
16505;HTU21D;8365;51.030;4.696;2023-07-09T01:24:49;23.69;118.99
16505;HTU21D;8365;51.030;4.696;2023-07-09T01:27:25;23.67;118.99
16505;HTU21D;8365;51.030;4.696;2023-07-09T01:29:59;23.72;118.99
16505;HTU21D;8365;51.030;4.696;2023-07-09T01:32:30;23.71;118.99
16505;HTU21D;8365;51.030;4.696;2023-07-09T01:35:03;23.72;118.99
16505;HTU21D;8365;51.030;4.696;2023-07-09T01:37:37;23.75;118.99
16505;HTU21D;8365;51.030;4.696;2023-07-09T01:40:10;23.77;118.99
16505;HTU21D;8365;51.030;4.696;2023-07-09T01:42:41;23.76;118.99
16505;HTU21D;8365;51.030;4.696;2023-07-09T01:45:11;23.72;118.99
16505;HTU21D;8365;51.030;4.696;2023-07-09T01:47:45;23.66;118.99
16505;HTU21D;8365;51.030;4.696;2023-07-09T01:50:16;23.66;118.79
16505;HTU21D;8365;51.030;4.696;2023-07-09T01:52:47;23.58;118.99
16505;HTU21D;8365;51.030;4.696;2023-07-09T01:55:20;23.57;118.99
16505;HTU21D;8365;51.030;4.696;2023-07-09T01:57:50;23.53;118.99
16505;HTU21D;8365;51.030;4.696;2023-07-09T02:00:22;23.46;118.99
16505;HTU21D;8365;51.030;4.696;2023-07-09T02:02:53;23.37;118.99
16505;HTU21D;8365;51.030;4.696;2023-07-09T02:05:25;23.41;118.99
16505;HTU21D;8365;51.030;4.696;2023-07-09T02:07:56;23.41;118.99
16505;HTU21D;8365;51.030;4.696;2023-07-09T02:10:29;23.27;118.99
16505;HTU21D;8365;51.030;4.696;2023-07-09T02:13:00;23.25;118.99
16505;HTU21D;8365;51.030;4.696;2023-07-09T02:15:30;23.02;118.99
16505;HTU21D;8365;51.030;4.696;2023-07-09T02:18:01;23.09;118.99
16505;HTU21D;8365;51.030;4.696;2023-07-09T02:20:32;23.08;118.99
16505;HTU21D;8365;51.030;4.696;2023-07-09T02:23:03;23.16;118.99
16505;HTU21D;8365;51.030;4.696;2023-07-09T02:25:34;23.17;118.99
16505;HTU21D;8365;51.030;4.696;2023-07-09T02:28:07;23.20;118.99
16505;HTU21D;8365;51.030;4.696;2023-07-09T02:30:38;23.25;118.99
16505;HTU21D;8365;51.030;4.696;2023-07-09T02:33:10;23.22;118.99
16505;HTU21D;8365;51.030;4.696;2023-07-09T02:35:41;23.20;118.99
16505;HTU21D;8365;51.030;4.696;2023-07-09T02:38:11;23.28;118.99
16505;HTU21D;8365;51.030;4.696;2023-07-09T02:40:42;23.30;118.99
16505;HTU21D;8365;51.030;4.696;2023-07-09T02:43:12;23.28;118.99
16505;HTU21D;8365;51.030;4.696;2023-07-09T02:45:43;23.18;118.99
16505;HTU21D;8365;51.030;4.696;2023-07-09T02:48:13;23.25;118.99
16505;HTU21D;8365;51.030;4.696;2023-07-09T02:50:44;23.21;118.99
16505;HTU21D;8365;51.030;4.696;2023-07-09T02:53:14;23.24;118.55
16505;HTU21D;8365;51.030;4.696;2023-07-09T02:55:45;23.18;118.81
16505;HTU21D;8365;51.030;4.696;2023-07-09T02:58:15;23.21;118.75
16505;HTU21D;8365;51.030;4.696;2023-07-09T03:00:49;23.22;118.53
16505;HTU21D;8365;51.030;4.696;2023-07-09T03:03:23;23.22;118.69
16505;HTU21D;8365;51.030;4.696;2023-07-09T03:05:55;23.22;118.18
16505;HTU21D;8365;51.030;4.696;2023-07-09T03:08:26;23.15;118.17
16505;HTU21D;8365;51.030;4.696;2023-07-09T03:10:57;23.12;118.57
16505;HTU21D;8365;51.030;4.696;2023-07-09T03:13:27;23.14;118.53
16505;HTU21D;8365;51.030;4.696;2023-07-09T03:15:57;23.16;117.80
16505;HTU21D;8365;51.030;4.696;2023-07-09T03:18:28;23.17;118.31
16505;HTU21D;8365;51.030;4.696;2023-07-09T03:20:59;23.18;118.44
16505;HTU21D;8365;51.030;4.696;2023-07-09T03:23:30;23.18;117.94
16505;HTU21D;8365;51.030;4.696;2023-07-09T03:26:00;23.17;118.08
16505;HTU21D;8365;51.030;4.696;2023-07-09T03:28:32;23.17;117.83
16505;HTU21D;8365;51.030;4.696;2023-07-09T03:31:02;23.17;117.16
16505;HTU21D;8365;51.030;4.696;2023-07-09T03:33:33;23.20;117.09
16505;HTU21D;8365;51.030;4.696;2023-07-09T03:36:04;23.18;117.19
16505;HTU21D;8365;51.030;4.696;2023-07-09T03:38:34;23.20;116.96
16505;HTU21D;8365;51.030;4.696;2023-07-09T03:41:05;23.18;117.43
16505;HTU21D;8365;51.030;4.696;2023-07-09T03:43:36;23.15;117.70
16505;HTU21D;8365;51.030;4.696;2023-07-09T03:46:07;23.11;117.44
16505;HTU21D;8365;51.030;4.696;2023-07-09T03:48:37;23.03;118.01
16505;HTU21D;8365;51.030;4.696;2023-07-09T03:51:08;23.09;117.31
16505;HTU21D;8365;51.030;4.696;2023-07-09T03:53:38;23.07;117.21
16505;HTU21D;8365;51.030;4.696;2023-07-09T03:56:08;23.01;117.54
16505;HTU21D;8365;51.030;4.696;2023-07-09T03:58:39;22.99;117.60
16505;HTU21D;8365;51.030;4.696;2023-07-09T04:01:09;23.00;118.21
16505;HTU21D;8365;51.030;4.696;2023-07-09T04:03:40;23.05;117.97
16505;HTU21D;8365;51.030;4.696;2023-07-09T04:06:10;23.07;117.46
16505;HTU21D;8365;51.030;4.696;2023-07-09T04:08:41;23.09;117.51
16505;HTU21D;8365;51.030;4.696;2023-07-09T04:11:11;23.09;117.35
16505;HTU21D;8365;51.030;4.696;2023-07-09T04:13:42;23.13;117.44
16505;HTU21D;8365;51.030;4.696;2023-07-09T04:16:12;23.15;117.34
16505;HTU21D;8365;51.030;4.696;2023-07-09T04:18:43;23.15;117.13
16505;HTU21D;8365;51.030;4.696;2023-07-09T04:21:13;23.18;116.66
16505;HTU21D;8365;51.030;4.696;2023-07-09T04:23:44;23.20;116.57
16505;HTU21D;8365;51.030;4.696;2023-07-09T04:26:15;23.23;117.17
16505;HTU21D;8365;51.030;4.696;2023-07-09T04:28:45;23.27;116.54
16505;HTU21D;8365;51.030;4.696;2023-07-09T04:31:16;23.30;116.32
16505;HTU21D;8365;51.030;4.696;2023-07-09T04:33:46;23.34;116.67
16505;HTU21D;8365;51.030;4.696;2023-07-09T04:36:16;23.23;117.86
16505;HTU21D;8365;51.030;4.696;2023-07-09T04:38:47;22.73;118.99
16505;HTU21D;8365;51.030;4.696;2023-07-09T04:41:18;22.49;118.99
16505;HTU21D;8365;51.030;4.696;2023-07-09T04:43:48;22.62;118.99
16505;HTU21D;8365;51.030;4.696;2023-07-09T04:46:19;22.39;118.99
16505;HTU21D;8365;51.030;4.696;2023-07-09T04:48:49;22.70;118.99
16505;HTU21D;8365;51.030;4.696;2023-07-09T04:51:20;22.95;118.99
16505;HTU21D;8365;51.030;4.696;2023-07-09T04:53:50;23.13;118.99
16505;HTU21D;8365;51.030;4.696;2023-07-09T04:56:24;23.17;118.37
16505;HTU21D;8365;51.030;4.696;2023-07-09T04:58:54;23.32;117.42
16505;HTU21D;8365;51.030;4.696;2023-07-09T05:01:25;23.49;116.03
16505;HTU21D;8365;51.030;4.696;2023-07-09T05:03:55;23.61;115.21
16505;HTU21D;8365;51.030;4.696;2023-07-09T05:06:26;23.71;115.13
16505;HTU21D;8365;51.030;4.696;2023-07-09T05:08:56;23.82;114.79
16505;HTU21D;8365;51.030;4.696;2023-07-09T05:11:27;23.85;114.80
16505;HTU21D;8365;51.030;4.696;2023-07-09T05:14:00;23.92;114.89
16505;HTU21D;8365;51.030;4.696;2023-07-09T05:16:31;24.02;114.25
16505;HTU21D;8365;51.030;4.696;2023-07-09T05:19:01;24.10;114.38
16505;HTU21D;8365;51.030;4.696;2023-07-09T05:21:31;24.17;114.57
16505;HTU21D;8365;51.030;4.696;2023-07-09T05:24:03;24.30;114.46
16505;HTU21D;8365;51.030;4.696;2023-07-09T05:26:34;24.28;114.75
16505;HTU21D;8365;51.030;4.696;2023-07-09T05:29:07;24.38;113.93
16505;HTU21D;8365;51.030;4.696;2023-07-09T05:31:37;24.44;113.20
16505;HTU21D;8365;51.030;4.696;2023-07-09T05:34:08;24.50;113.10
16505;HTU21D;8365;51.030;4.696;2023-07-09T05:36:39;24.49;112.84
16505;HTU21D;8365;51.030;4.696;2023-07-09T05:39:10;24.61;111.42
16505;HTU21D;8365;51.030;4.696;2023-07-09T05:41:40;24.72;111.03
16505;HTU21D;8365;51.030;4.696;2023-07-09T05:44:11;24.74;110.10
16505;HTU21D;8365;51.030;4.696;2023-07-09T05:46:43;24.72;109.72
16505;HTU21D;8365;51.030;4.696;2023-07-09T05:49:14;24.95;107.79
16505;HTU21D;8365;51.030;4.696;2023-07-09T05:51:44;24.92;109.99
16505;HTU21D;8365;51.030;4.696;2023-07-09T05:54:15;25.06;108.67
16505;HTU21D;8365;51.030;4.696;2023-07-09T05:56:45;25.10;109.11
16505;HTU21D;8365;51.030;4.696;2023-07-09T05:59:18;25.24;106.86
16505;HTU21D;8365;51.030;4.696;2023-07-09T06:01:49;25.31;106.21
16505;HTU21D;8365;51.030;4.696;2023-07-09T06:04:19;25.52;108.17
16505;HTU21D;8365;51.030;4.696;2023-07-09T06:06:50;25.58;108.70
16505;HTU21D;8365;51.030;4.696;2023-07-09T06:09:20;25.59;110.78
16505;HTU21D;8365;51.030;4.696;2023-07-09T06:11:51;25.80;109.75
16505;HTU21D;8365;51.030;4.696;2023-07-09T06:14:22;25.96;109.03
16505;HTU21D;8365;51.030;4.696;2023-07-09T06:16:52;25.73;107.15
16505;HTU21D;8365;51.030;4.696;2023-07-09T06:19:23;25.92;105.28
16505;HTU21D;8365;51.030;4.696;2023-07-09T06:21:53;25.84;105.57
16505;HTU21D;8365;51.030;4.696;2023-07-09T06:24:24;25.91;105.03
16505;HTU21D;8365;51.030;4.696;2023-07-09T06:26:57;26.11;103.95
16505;HTU21D;8365;51.030;4.696;2023-07-09T06:29:29;26.25;103.95
16505;HTU21D;8365;51.030;4.696;2023-07-09T06:32:00;26.43;102.25
16505;HTU21D;8365;51.030;4.696;2023-07-09T06:34:30;26.52;101.33
16505;HTU21D;8365;51.030;4.696;2023-07-09T06:37:01;26.01;102.12
16505;HTU21D;8365;51.030;4.696;2023-07-09T06:39:31;26.40;101.17
16505;HTU21D;8365;51.030;4.696;2023-07-09T06:42:02;26.62;99.69
16505;HTU21D;8365;51.030;4.696;2023-07-09T06:44:33;26.64;97.22
16505;HTU21D;8365;51.030;4.696;2023-07-09T06:47:03;26.79;96.25
16505;HTU21D;8365;51.030;4.696;2023-07-09T06:49:34;26.93;95.15
16505;HTU21D;8365;51.030;4.696;2023-07-09T06:52:05;26.80;96.28
16505;HTU21D;8365;51.030;4.696;2023-07-09T06:54:36;27.01;94.70
16505;HTU21D;8365;51.030;4.696;2023-07-09T06:57:09;26.84;96.55
16505;HTU21D;8365;51.030;4.696;2023-07-09T06:59:39;26.94;96.70
16505;HTU21D;8365;51.030;4.696;2023-07-09T07:02:12;26.67;97.74
16505;HTU21D;8365;51.030;4.696;2023-07-09T07:04:42;26.19;98.13
16505;HTU21D;8365;51.030;4.696;2023-07-09T07:07:13;26.10;98.92
16505;HTU21D;8365;51.030;4.696;2023-07-09T07:09:43;26.10;100.26
16505;HTU21D;8365;51.030;4.696;2023-07-09T07:12:25;26.32;98.66
16505;HTU21D;8365;51.030;4.696;2023-07-09T07:14:56;26.57;98.20
16505;HTU21D;8365;51.030;4.696;2023-07-09T07:17:26;26.70;96.92
16505;HTU21D;8365;51.030;4.696;2023-07-09T07:19:57;26.63;96.55
16505;HTU21D;8365;51.030;4.696;2023-07-09T07:22:27;26.64;97.60
16505;HTU21D;8365;51.030;4.696;2023-07-09T07:24:58;26.76;97.42
16505;HTU21D;8365;51.030;4.696;2023-07-09T07:27:28;26.97;97.13
16505;HTU21D;8365;51.030;4.696;2023-07-09T07:30:00;26.89;97.62
16505;HTU21D;8365;51.030;4.696;2023-07-09T07:32:31;27.06;97.19
16505;HTU21D;8365;51.030;4.696;2023-07-09T07:35:01;27.09;97.35
16505;HTU21D;8365;51.030;4.696;2023-07-09T07:37:32;27.14;97.58
16505;HTU21D;8365;51.030;4.696;2023-07-09T07:40:08;27.07;97.26
16505;HTU21D;8365;51.030;4.696;2023-07-09T07:42:38;27.19;95.53
16505;HTU21D;8365;51.030;4.696;2023-07-09T07:45:09;27.34;95.00
16505;HTU21D;8365;51.030;4.696;2023-07-09T07:47:42;27.42;94.64
16505;HTU21D;8365;51.030;4.696;2023-07-09T07:50:14;27.27;96.79
16505;HTU21D;8365;51.030;4.696;2023-07-09T07:52:44;27.66;95.28
16505;HTU21D;8365;51.030;4.696;2023-07-09T07:55:15;27.63;94.66
16505;HTU21D;8365;51.030;4.696;2023-07-09T07:57:45;27.89;94.64
16505;HTU21D;8365;51.030;4.696;2023-07-09T08:00:16;27.83;93.97
16505;HTU21D;8365;51.030;4.696;2023-07-09T08:02:46;28.03;93.45
16505;HTU21D;8365;51.030;4.696;2023-07-09T08:05:17;27.98;93.98
16505;HTU21D;8365;51.030;4.696;2023-07-09T08:07:47;28.02;92.01
16505;HTU21D;8365;51.030;4.696;2023-07-09T08:10:20;28.02;92.21
16505;HTU21D;8365;51.030;4.696;2023-07-09T08:12:50;27.95;92.14
16505;HTU21D;8365;51.030;4.696;2023-07-09T08:15:21;27.94;91.53
16505;HTU21D;8365;51.030;4.696;2023-07-09T08:17:52;28.03;91.47
16505;HTU21D;8365;51.030;4.696;2023-07-09T08:20:22;27.95;91.82
16505;HTU21D;8365;51.030;4.696;2023-07-09T08:22:53;28.04;90.75
16505;HTU21D;8365;51.030;4.696;2023-07-09T08:25:23;28.25;90.78
16505;HTU21D;8365;51.030;4.696;2023-07-09T08:27:54;28.15;91.34
16505;HTU21D;8365;51.030;4.696;2023-07-09T08:30:24;28.27;90.92
16505;HTU21D;8365;51.030;4.696;2023-07-09T08:32:55;28.42;90.79
16505;HTU21D;8365;51.030;4.696;2023-07-09T08:35:26;28.30;92.23
16505;HTU21D;8365;51.030;4.696;2023-07-09T08:37:56;28.45;91.36
16505;HTU21D;8365;51.030;4.696;2023-07-09T08:40:27;28.62;91.21
16505;HTU21D;8365;51.030;4.696;2023-07-09T08:43:12;28.78;89.23
16505;HTU21D;8365;51.030;4.696;2023-07-09T08:45:51;28.94;88.78
16505;HTU21D;8365;51.030;4.696;2023-07-09T08:48:33;29.00;87.80
16505;HTU21D;8365;51.030;4.696;2023-07-09T08:53:57;29.35;86.54
16505;HTU21D;8365;51.030;4.696;2023-07-09T08:56:32;29.61;85.14
16505;HTU21D;8365;51.030;4.696;2023-07-09T08:59:03;29.79;84.77
16505;HTU21D;8365;51.030;4.696;2023-07-09T09:01:37;29.73;85.24
16505;HTU21D;8365;51.030;4.696;2023-07-09T09:04:13;29.48;86.10
16505;HTU21D;8365;51.030;4.696;2023-07-09T09:06:50;29.60;84.32
16505;HTU21D;8365;51.030;4.696;2023-07-09T09:09:31;29.96;84.87
16505;HTU21D;8365;51.030;4.696;2023-07-09T09:14:37;30.53;83.87
16505;HTU21D;8365;51.030;4.696;2023-07-09T09:17:14;30.83;82.75
16505;HTU21D;8365;51.030;4.696;2023-07-09T09:19:50;31.02;79.57
16505;HTU21D;8365;51.030;4.696;2023-07-09T09:22:30;31.37;78.67
16505;HTU21D;8365;51.030;4.696;2023-07-09T09:25:11;31.54;78.72
16505;HTU21D;8365;51.030;4.696;2023-07-09T09:27:46;31.33;78.92
16505;HTU21D;8365;51.030;4.696;2023-07-09T09:30:19;31.24;79.43
16505;HTU21D;8365;51.030;4.696;2023-07-09T09:32:54;31.42;79.43
16505;HTU21D;8365;51.030;4.696;2023-07-09T09:35:30;31.44;79.88
16505;HTU21D;8365;51.030;4.696;2023-07-09T09:38:08;31.64;79.06
16505;HTU21D;8365;51.030;4.696;2023-07-09T09:40:39;31.33;80.28
16505;HTU21D;8365;51.030;4.696;2023-07-09T09:43:18;31.55;79.43
16505;HTU21D;8365;51.030;4.696;2023-07-09T09:45:50;31.25;79.27
16505;HTU21D;8365;51.030;4.696;2023-07-09T09:48:29;30.71;80.37
16505;HTU21D;8365;51.030;4.696;2023-07-09T09:51:03;31.14;80.58
16505;HTU21D;8365;51.030;4.696;2023-07-09T09:53:38;31.65;79.30
16505;HTU21D;8365;51.030;4.696;2023-07-09T09:56:36;31.90;77.60
16505;HTU21D;8365;51.030;4.696;2023-07-09T09:59:17;32.40;76.44
16505;HTU21D;8365;51.030;4.696;2023-07-09T10:01:56;31.89;76.67
16505;HTU21D;8365;51.030;4.696;2023-07-09T10:04:27;31.60;77.86
16505;HTU21D;8365;51.030;4.696;2023-07-09T10:07:03;31.99;77.02
16505;HTU21D;8365;51.030;4.696;2023-07-09T10:09:49;31.95;77.56
16505;HTU21D;8365;51.030;4.696;2023-07-09T10:18:36;33.33;70.68
16505;HTU21D;8365;51.030;4.696;2023-07-09T10:20:48;33.81;68.83
16505;HTU21D;8365;51.030;4.696;2023-07-09T10:23:39;33.88;68.84
16505;HTU21D;8365;51.030;4.696;2023-07-09T10:26:15;34.66;66.38
16505;HTU21D;8365;51.030;4.696;2023-07-09T10:34:50;35.70;59.15
16505;HTU21D;8365;51.030;4.696;2023-07-09T10:40:14;34.51;61.52
16505;HTU21D;8365;51.030;4.696;2023-07-09T10:42:54;34.27;61.97
16505;HTU21D;8365;51.030;4.696;2023-07-09T10:45:33;33.72;62.98
16505;HTU21D;8365;51.030;4.696;2023-07-09T10:48:12;33.63;63.50
16505;HTU21D;8365;51.030;4.696;2023-07-09T10:50:52;33.06;63.52
16505;HTU21D;8365;51.030;4.696;2023-07-09T10:53:36;32.94;64.99
16505;HTU21D;8365;51.030;4.696;2023-07-09T10:56:12;32.17;67.09
16505;HTU21D;8365;51.030;4.696;2023-07-09T11:01:37;31.51;69.77
16505;HTU21D;8365;51.030;4.696;2023-07-09T11:04:36;30.95;73.85
16505;HTU21D;8365;51.030;4.696;2023-07-09T11:07:11;30.84;73.35
16505;HTU21D;8365;51.030;4.696;2023-07-09T11:09:45;30.17;76.42
16505;HTU21D;8365;51.030;4.696;2023-07-09T11:17:29;29.44;78.85
16505;HTU21D;8365;51.030;4.696;2023-07-09T11:20:06;29.37;78.50
16505;HTU21D;8365;51.030;4.696;2023-07-09T11:22:40;29.52;78.64
16505;HTU21D;8365;51.030;4.696;2023-07-09T11:25:13;29.58;77.76
16505;HTU21D;8365;51.030;4.696;2023-07-09T11:27:49;29.67;77.90
16505;HTU21D;8365;51.030;4.696;2023-07-09T11:30:25;29.16;78.71
16505;HTU21D;8365;51.030;4.696;2023-07-09T11:33:04;28.88;80.31
16505;HTU21D;8365;51.030;4.696;2023-07-09T11:35:50;28.50;83.04
16505;HTU21D;8365;51.030;4.696;2023-07-09T11:38:23;28.63;82.67
16505;HTU21D;8365;51.030;4.696;2023-07-09T11:40:55;28.47;82.79
16505;HTU21D;8365;51.030;4.696;2023-07-09T11:43:32;28.41;83.19
16505;HTU21D;8365;51.030;4.696;2023-07-09T11:46:22;28.28;82.70
16505;HTU21D;8365;51.030;4.696;2023-07-09T11:48:57;27.85;85.42
16505;HTU21D;8365;51.030;4.696;2023-07-09T11:51:39;27.95;84.53
16505;HTU21D;8365;51.030;4.696;2023-07-09T11:54:13;27.98;84.00
16505;HTU21D;8365;51.030;4.696;2023-07-09T11:56:56;27.98;84.21
16505;HTU21D;8365;51.030;4.696;2023-07-09T11:59:27;27.91;83.74
16505;HTU21D;8365;51.030;4.696;2023-07-09T12:01:57;27.86;84.01
16505;HTU21D;8365;51.030;4.696;2023-07-09T12:04:33;27.59;86.25
16505;HTU21D;8365;51.030;4.696;2023-07-09T12:07:09;27.38;87.62
16505;HTU21D;8365;51.030;4.696;2023-07-09T12:09:47;27.41;86.93
16505;HTU21D;8365;51.030;4.696;2023-07-09T12:12:24;27.41;86.54
16505;HTU21D;8365;51.030;4.696;2023-07-09T12:14:55;27.31;87.25
16505;HTU21D;8365;51.030;4.696;2023-07-09T12:17:26;27.34;87.33
16505;HTU21D;8365;51.030;4.696;2023-07-09T12:19:57;27.16;88.42
16505;HTU21D;8365;51.030;4.696;2023-07-09T12:22:27;27.15;87.81
16505;HTU21D;8365;51.030;4.696;2023-07-09T12:24:58;26.95;88.69
16505;HTU21D;8365;51.030;4.696;2023-07-09T12:27:31;26.90;89.41
16505;HTU21D;8365;51.030;4.696;2023-07-09T12:30:11;26.91;89.86
16505;HTU21D;8365;51.030;4.696;2023-07-09T12:32:47;26.86;90.34
16505;HTU21D;8365;51.030;4.696;2023-07-09T12:35:20;26.49;93.01
16505;HTU21D;8365;51.030;4.696;2023-07-09T12:37:51;26.36;95.87
16505;HTU21D;8365;51.030;4.696;2023-07-09T12:40:27;26.27;99.09
16505;HTU21D;8365;51.030;4.696;2023-07-09T12:42:59;26.23;99.27
16505;HTU21D;8365;51.030;4.696;2023-07-09T12:45:29;26.03;101.97
16505;HTU21D;8365;51.030;4.696;2023-07-09T12:48:01;25.65;105.44
16505;HTU21D;8365;51.030;4.696;2023-07-09T12:50:34;25.19;110.81
16505;HTU21D;8365;51.030;4.696;2023-07-09T12:53:15;24.78;113.42
16505;HTU21D;8365;51.030;4.696;2023-07-09T12:55:46;24.44;115.88
16505;HTU21D;8365;51.030;4.696;2023-07-09T12:58:23;24.17;118.99
16505;HTU21D;8365;51.030;4.696;2023-07-09T13:00:55;23.64;118.99
16505;HTU21D;8365;51.030;4.696;2023-07-09T13:03:28;23.35;118.99
16505;HTU21D;8365;51.030;4.696;2023-07-09T13:06:20;23.06;118.99
16505;HTU21D;8365;51.030;4.696;2023-07-09T13:08:58;22.69;118.99
16505;HTU21D;8365;51.030;4.696;2023-07-09T13:11:35;22.73;118.99
16505;HTU21D;8365;51.030;4.696;2023-07-09T13:14:19;22.73;118.99
16505;HTU21D;8365;51.030;4.696;2023-07-09T13:16:50;22.84;118.99
16505;HTU21D;8365;51.030;4.696;2023-07-09T13:19:20;22.92;118.99
16505;HTU21D;8365;51.030;4.696;2023-07-09T13:21:52;22.99;118.99
16505;HTU21D;8365;51.030;4.696;2023-07-09T13:24:28;23.20;118.99
16505;HTU21D;8365;51.030;4.696;2023-07-09T13:27:00;23.45;118.99
16505;HTU21D;8365;51.030;4.696;2023-07-09T13:29:32;23.75;118.99
16505;HTU21D;8365;51.030;4.696;2023-07-09T13:32:11;23.99;118.99
16505;HTU21D;8365;51.030;4.696;2023-07-09T13:34:42;24.27;118.99
16505;HTU21D;8365;51.030;4.696;2023-07-09T13:37:15;24.34;118.99
16505;HTU21D;8365;51.030;4.696;2023-07-09T13:39:45;24.54;118.99
16505;HTU21D;8365;51.030;4.696;2023-07-09T13:42:17;24.34;118.99
16505;HTU21D;8365;51.030;4.696;2023-07-09T13:44:49;24.59;118.99
16505;HTU21D;8365;51.030;4.696;2023-07-09T13:47:20;24.65;118.99
16505;HTU21D;8365;51.030;4.696;2023-07-09T13:49:50;24.78;118.99
16505;HTU21D;8365;51.030;4.696;2023-07-09T13:52:23;24.98;118.99
16505;HTU21D;8365;51.030;4.696;2023-07-09T13:54:55;25.21;118.99
16505;HTU21D;8365;51.030;4.696;2023-07-09T13:57:25;25.15;118.99
16505;HTU21D;8365;51.030;4.696;2023-07-09T13:59:56;25.39;118.99
16505;HTU21D;8365;51.030;4.696;2023-07-09T14:02:31;25.61;118.99
16505;HTU21D;8365;51.030;4.696;2023-07-09T14:05:05;25.76;118.99
16505;HTU21D;8365;51.030;4.696;2023-07-09T14:07:38;25.89;118.99
16505;HTU21D;8365;51.030;4.696;2023-07-09T14:10:12;26.03;118.99
16505;HTU21D;8365;51.030;4.696;2023-07-09T14:12:45;26.23;118.99
16505;HTU21D;8365;51.030;4.696;2023-07-09T14:15:20;26.40;118.99
16505;HTU21D;8365;51.030;4.696;2023-07-09T14:17:50;26.43;118.99
16505;HTU21D;8365;51.030;4.696;2023-07-09T14:20:22;26.55;118.99
16505;HTU21D;8365;51.030;4.696;2023-07-09T14:22:55;26.65;118.99
16505;HTU21D;8365;51.030;4.696;2023-07-09T14:25:26;26.70;118.99
16505;HTU21D;8365;51.030;4.696;2023-07-09T14:27:58;26.91;118.99
16505;HTU21D;8365;51.030;4.696;2023-07-09T14:30:29;27.16;115.31
16505;HTU21D;8365;51.030;4.696;2023-07-09T14:32:59;27.94;110.72
16505;HTU21D;8365;51.030;4.696;2023-07-09T14:35:30;29.03;107.11
16505;HTU21D;8365;51.030;4.696;2023-07-09T14:38:00;29.22;96.96
16505;HTU21D;8365;51.030;4.696;2023-07-09T14:40:31;29.38;96.17
16505;HTU21D;8365;51.030;4.696;2023-07-09T14:43:07;29.49;96.84
16505;HTU21D;8365;51.030;4.696;2023-07-09T14:45:41;30.07;95.08
16505;HTU21D;8365;51.030;4.696;2023-07-09T14:48:20;30.12;94.68
16505;HTU21D;8365;51.030;4.696;2023-07-09T14:50:50;30.31;97.45
16505;HTU21D;8365;51.030;4.696;2023-07-09T14:53:24;30.53;96.98
16505;HTU21D;8365;51.030;4.696;2023-07-09T14:55:56;31.07;91.22
16505;HTU21D;8365;51.030;4.696;2023-07-09T14:58:27;32.10;87.09
16505;HTU21D;8365;51.030;4.696;2023-07-09T15:00:57;32.35;85.32
16505;HTU21D;8365;51.030;4.696;2023-07-09T15:03:31;33.23;85.07
16505;HTU21D;8365;51.030;4.696;2023-07-09T15:06:04;32.86;81.07
16505;HTU21D;8365;51.030;4.696;2023-07-09T15:08:35;32.79;81.87
16505;HTU21D;8365;51.030;4.696;2023-07-09T15:11:05;33.33;79.82
16505;HTU21D;8365;51.030;4.696;2023-07-09T15:13:38;33.11;80.05
16505;HTU21D;8365;51.030;4.696;2023-07-09T15:16:09;32.56;81.04
16505;HTU21D;8365;51.030;4.696;2023-07-09T15:18:39;32.69;81.37
16505;HTU21D;8365;51.030;4.696;2023-07-09T15:21:12;32.37;81.77
16505;HTU21D;8365;51.030;4.696;2023-07-09T15:23:44;31.57;89.95
16505;HTU21D;8365;51.030;4.696;2023-07-09T15:26:15;31.79;86.06
16505;HTU21D;8365;51.030;4.696;2023-07-09T15:28:46;31.55;88.58
16505;HTU21D;8365;51.030;4.696;2023-07-09T15:31:20;31.56;88.64
16505;HTU21D;8365;51.030;4.696;2023-07-09T15:33:50;31.81;88.22
16505;HTU21D;8365;51.030;4.696;2023-07-09T15:36:21;32.46;85.19
16505;HTU21D;8365;51.030;4.696;2023-07-09T15:38:54;32.89;82.07
16505;HTU21D;8365;51.030;4.696;2023-07-09T15:41:24;33.23;79.57
16505;HTU21D;8365;51.030;4.696;2023-07-09T15:43:55;32.40;82.58
16505;HTU21D;8365;51.030;4.696;2023-07-09T15:46:25;32.72;80.52
16505;HTU21D;8365;51.030;4.696;2023-07-09T15:48:56;32.60;80.74
16505;HTU21D;8365;51.030;4.696;2023-07-09T15:51:26;32.48;82.94
16505;HTU21D;8365;51.030;4.696;2023-07-09T15:53:57;32.30;82.61
16505;HTU21D;8365;51.030;4.696;2023-07-09T15:56:28;32.03;83.87
16505;HTU21D;8365;51.030;4.696;2023-07-09T15:59:00;32.02;83.52
16505;HTU21D;8365;51.030;4.696;2023-07-09T16:01:31;31.49;87.59
16505;HTU21D;8365;51.030;4.696;2023-07-09T16:04:02;31.41;85.43
16505;HTU21D;8365;51.030;4.696;2023-07-09T16:06:39;31.25;85.36
16505;HTU21D;8365;51.030;4.696;2023-07-09T16:09:10;30.91;88.22
16505;HTU21D;8365;51.030;4.696;2023-07-09T16:11:45;30.78;88.26
16505;HTU21D;8365;51.030;4.696;2023-07-09T16:14:27;31.13;87.74
16505;HTU21D;8365;51.030;4.696;2023-07-09T16:17:00;31.71;84.42
16505;HTU21D;8365;51.030;4.696;2023-07-09T16:19:31;32.09;81.63
16505;HTU21D;8365;51.030;4.696;2023-07-09T16:22:04;32.38;80.75
16505;HTU21D;8365;51.030;4.696;2023-07-09T16:24:36;32.55;82.36